createdAt,value
2017-08-18T00:00:58.885Z,77.50
2017-08-18T00:03:28.041Z,77.90
2017-08-18T00:05:56.637Z,77.80
2017-08-18T00:08:25.909Z,78.00
2017-08-18T00:10:54.153Z,78.10
2017-08-18T00:13:22.412Z,78.50
2017-08-18T00:15:52.449Z,78.60
2017-08-18T00:18:20.708Z,78.60
2017-08-18T00:20:49.895Z,78.60
2017-08-18T00:23:18.120Z,78.60
2017-08-18T00:25:46.365Z,78.60
2017-08-18T00:28:16.847Z,78.50
2017-08-18T00:30:45.138Z,78.50
2017-08-18T00:33:13.426Z,78.40
2017-08-18T00:35:42.430Z,78.60
2017-08-18T00:38:11.565Z,78.20
2017-08-18T00:40:40.034Z,78.10
2017-08-18T00:43:09.035Z,78.10
2017-08-18T00:45:37.296Z,78.30
2017-08-18T00:48:05.546Z,78.40
2017-08-18T00:50:33.819Z,78.60
2017-08-18T00:53:04.428Z,78.30
2017-08-18T00:55:32.657Z,78.20
2017-08-18T00:58:00.914Z,78.40
2017-08-18T01:00:30.381Z,79.00
2017-08-18T01:02:59.068Z,78.90
2017-08-18T01:05:27.313Z,78.80
2017-08-18T01:07:55.956Z,79.00
2017-08-18T01:10:25.012Z,78.40
2017-08-18T01:12:53.250Z,78.80
2017-08-18T01:15:22.300Z,79.00
2017-08-18T01:17:53.671Z,78.80
2017-08-18T01:20:22.722Z,79.10
2017-08-18T01:22:51.415Z,78.70
2017-08-18T01:25:20.754Z,78.60
2017-08-18T01:27:49.017Z,78.70
2017-08-18T01:30:18.050Z,79.00
2017-08-18T01:32:46.414Z,79.00
2017-08-18T01:35:14.675Z,79.10
2017-08-18T01:37:43.756Z,79.20
2017-08-18T01:40:12.913Z,79.40
2017-08-18T01:42:41.178Z,79.40
2017-08-18T01:45:11.323Z,79.30
2017-08-18T01:47:39.543Z,79.10
2017-08-18T01:50:08.365Z,78.80
2017-08-18T01:52:36.628Z,79.00
2017-08-18T01:55:05.835Z,79.20
2017-08-18T01:57:35.246Z,79.00
2017-08-18T02:00:04.150Z,79.00
2017-08-18T02:02:32.364Z,78.90
2017-08-18T02:05:00.621Z,79.00
2017-08-18T02:07:30.051Z,79.30
2017-08-18T02:10:01.294Z,79.30
2017-08-18T02:12:29.626Z,79.10
2017-08-18T02:14:57.866Z,79.40
2017-08-18T02:17:26.115Z,79.40
2017-08-18T02:19:54.370Z,79.50
2017-08-18T02:22:23.851Z,79.30
2017-08-18T02:24:52.285Z,79.30
2017-08-18T02:27:20.645Z,79.20
2017-08-18T02:29:49.651Z,79.30
2017-08-18T02:32:17.920Z,79.20
2017-08-18T02:34:46.158Z,79.00
2017-08-18T02:37:15.214Z,80.30
2017-08-18T02:39:43.514Z,79.50
2017-08-18T02:42:11.782Z,79.80
2017-08-18T02:44:40.028Z,80.00
2017-08-18T02:47:08.446Z,80.20
2017-08-18T02:49:36.711Z,81.40
2017-08-18T02:52:05.015Z,80.70
2017-08-18T02:54:34.050Z,81.80
2017-08-18T02:57:02.291Z,81.20
2017-08-18T02:59:30.568Z,81.50
2017-08-18T03:01:59.621Z,82.10
2017-08-18T03:04:27.903Z,81.30
2017-08-18T03:06:57.121Z,81.80
2017-08-18T03:09:26.189Z,82.80
2017-08-18T03:11:54.909Z,82.10
2017-08-18T03:14:23.330Z,82.30
2017-08-18T03:16:51.590Z,82.50
2017-08-18T03:19:19.851Z,82.60
2017-08-18T03:21:48.109Z,82.80
2017-08-18T03:24:17.144Z,83.10
2017-08-18T03:26:45.394Z,83.10
2017-08-18T03:29:13.683Z,83.00
2017-08-18T03:31:41.933Z,83.20
2017-08-18T03:34:10.965Z,83.10
2017-08-18T03:36:39.361Z,83.10
2017-08-18T03:39:07.767Z,83.10
2017-08-18T03:41:36.475Z,83.10
2017-08-18T03:44:05.517Z,83.10
2017-08-18T03:46:34.085Z,83.10
2017-08-18T03:49:02.341Z,83.20
2017-08-18T03:51:30.782Z,83.10
2017-08-18T03:53:59.773Z,82.80
2017-08-18T03:56:28.026Z,82.50
2017-08-18T03:58:56.287Z,82.20
2017-08-18T04:01:24.542Z,82.00
2017-08-18T04:03:52.831Z,81.80
2017-08-18T04:06:21.098Z,82.00
2017-08-18T04:08:49.369Z,82.30
2017-08-18T04:11:17.752Z,82.60
2017-08-18T04:13:46.027Z,82.70
2017-08-18T04:16:14.334Z,82.80
2017-08-18T04:18:42.624Z,83.00
2017-08-18T04:21:10.894Z,82.90
2017-08-18T04:23:39.196Z,83.20
2017-08-18T04:26:07.436Z,83.40
2017-08-18T04:28:36.495Z,83.50
2017-08-18T04:31:04.825Z,83.50
2017-08-18T04:33:33.170Z,83.60
2017-08-18T04:36:08.400Z,83.80
2017-08-18T04:38:37.568Z,83.90
2017-08-18T04:41:06.760Z,84.20
2017-08-18T04:43:35.772Z,84.60
2017-08-18T04:46:05.651Z,84.30
2017-08-18T04:48:35.553Z,84.40
2017-08-18T04:51:04.645Z,84.30
2017-08-18T04:53:36.954Z,84.30
2017-08-18T04:56:05.337Z,84.40
2017-08-18T04:58:34.079Z,84.70
2017-08-18T05:01:05.335Z,84.70
2017-08-18T05:03:34.295Z,84.60
2017-08-18T05:06:04.267Z,84.70
2017-08-18T05:08:33.842Z,84.70
2017-08-18T05:11:05.003Z,84.70
2017-08-18T05:13:34.148Z,84.90
2017-08-18T05:16:03.687Z,84.80
2017-08-18T05:18:32.039Z,84.90
2017-08-18T05:21:00.280Z,84.90
2017-08-18T05:23:29.156Z,84.90
2017-08-18T05:26:01.683Z,84.20
2017-08-18T05:28:30.750Z,84.40
2017-08-18T05:30:59.057Z,84.10
2017-08-18T05:33:28.286Z,83.70
2017-08-18T05:35:58.451Z,83.70
2017-08-18T05:38:27.197Z,83.70
2017-08-18T05:40:56.688Z,83.30
2017-08-18T05:43:25.163Z,83.40
2017-08-18T05:45:53.519Z,83.40
2017-08-18T05:48:23.684Z,83.60
2017-08-18T05:50:52.703Z,83.80
2017-08-18T05:53:21.055Z,83.80
2017-08-18T05:55:50.300Z,83.90
2017-08-18T05:58:18.572Z,83.80
2017-08-18T06:00:48.854Z,83.80
2017-08-18T06:03:19.574Z,83.70
2017-08-18T06:05:53.264Z,83.90
2017-08-18T06:08:25.582Z,83.50
2017-08-18T06:11:03.545Z,83.40
2017-08-18T06:13:36.885Z,82.90
2017-08-18T06:16:07.139Z,82.30
2017-08-18T06:18:36.010Z,82.10
2017-08-18T06:21:06.398Z,82.50
2017-08-18T06:23:36.530Z,81.70
2017-08-18T06:26:06.712Z,81.20
2017-08-18T06:28:38.671Z,81.10
2017-08-18T06:31:10.388Z,81.70
2017-08-18T06:33:42.555Z,81.60
2017-08-18T06:36:12.605Z,81.70
2017-08-18T06:38:46.846Z,81.90
2017-08-18T06:41:17.255Z,81.50
2017-08-18T06:43:47.359Z,81.50
2017-08-18T06:46:19.454Z,82.00
2017-08-18T06:49:35.350Z,81.20
2017-08-18T06:52:09.234Z,81.20
2017-08-18T06:54:39.541Z,81.30
2017-08-18T06:57:08.462Z,81.70
2017-08-18T06:59:38.791Z,81.70
2017-08-18T07:02:08.920Z,81.40
2017-08-18T07:04:38.875Z,81.40
2017-08-18T07:07:08.279Z,81.20
2017-08-18T07:09:41.544Z,81.20
2017-08-18T07:12:12.130Z,81.40
2017-08-18T07:14:45.219Z,80.90
2017-08-18T07:17:13.997Z,81.20
2017-08-18T07:19:43.408Z,81.50
2017-08-18T07:22:13.001Z,81.30
2017-08-18T07:24:43.432Z,80.60
2017-08-18T07:27:15.655Z,80.20
2017-08-18T07:29:44.637Z,80.00
2017-08-18T07:32:18.401Z,79.90
2017-08-18T07:34:50.214Z,80.10
2017-08-18T07:37:20.946Z,79.90
2017-08-18T07:39:51.307Z,80.30
2017-08-18T07:42:23.145Z,80.60
2017-08-18T07:44:53.287Z,81.10
2017-08-18T07:47:26.794Z,81.20
2017-08-18T07:49:55.997Z,81.30
2017-08-18T07:52:26.316Z,81.60
2017-08-18T07:54:54.725Z,82.50
2017-08-18T07:57:25.314Z,81.50
2017-08-18T07:59:53.953Z,81.70
2017-08-18T08:02:22.519Z,81.80
2017-08-18T08:04:51.524Z,82.00
2017-08-18T08:07:19.914Z,82.00
2017-08-18T08:09:48.158Z,81.30
2017-08-18T08:12:17.532Z,81.10
2017-08-18T08:14:47.040Z,80.80
2017-08-18T08:17:15.892Z,80.70
2017-08-18T08:19:44.225Z,81.10
2017-08-18T08:22:13.322Z,80.70
2017-08-18T08:24:41.536Z,80.50
2017-08-18T08:27:09.909Z,80.80
2017-08-18T08:29:38.385Z,79.70
2017-08-18T08:32:07.413Z,80.90
2017-08-18T08:34:35.762Z,80.80
2017-08-18T08:37:04.013Z,81.80
2017-08-18T08:39:32.428Z,81.90
2017-08-18T08:42:02.574Z,81.20
2017-08-18T08:44:31.825Z,80.70
2017-08-18T08:47:00.511Z,80.00
2017-08-18T08:49:28.781Z,80.50
2017-08-18T08:51:57.621Z,82.20
2017-08-18T08:54:25.866Z,80.80
2017-08-18T08:56:54.203Z,81.00
2017-08-18T08:59:22.460Z,80.70
2017-08-18T09:01:50.682Z,81.50
2017-08-18T09:04:19.478Z,78.10
2017-08-18T09:06:47.889Z,78.00
2017-08-18T09:09:16.128Z,75.90
2017-08-18T09:11:44.424Z,76.40
2017-08-18T09:14:12.852Z,75.10
2017-08-18T09:16:42.484Z,75.00
2017-08-18T09:19:10.807Z,74.20
2017-08-18T09:21:39.047Z,72.50
2017-08-18T09:24:08.082Z,71.50
2017-08-18T09:26:36.348Z,71.80
2017-08-18T09:29:04.603Z,71.10
2017-08-18T09:31:33.078Z,70.40
2017-08-18T09:34:01.357Z,69.20
2017-08-18T09:36:30.475Z,69.00
2017-08-18T09:38:59.966Z,69.30
2017-08-18T09:41:28.244Z,69.50
2017-08-18T09:43:56.476Z,69.10
2017-08-18T09:46:24.742Z,69.30
2017-08-18T09:49:05.730Z,70.30
2017-08-18T09:51:45.835Z,70.30
2017-08-18T09:54:25.951Z,70.10
2017-08-18T09:57:06.609Z,70.30
2017-08-18T09:59:34.903Z,71.30
2017-08-18T10:02:04.334Z,71.00
2017-08-18T10:04:32.434Z,71.50
2017-08-18T10:07:01.473Z,71.50
2017-08-18T10:09:29.521Z,71.40
2017-08-18T10:11:59.121Z,71.40
2017-08-18T10:14:27.170Z,71.90
2017-08-18T10:16:55.227Z,72.50
2017-08-18T10:19:23.225Z,72.20
2017-08-18T10:21:53.313Z,72.80
2017-08-18T10:24:22.482Z,72.80
2017-08-18T10:26:50.505Z,72.70
2017-08-18T10:29:19.630Z,72.50
2017-08-18T10:31:48.550Z,73.20
2017-08-18T10:34:18.020Z,73.20
2017-08-18T10:36:47.568Z,72.20
2017-08-18T10:39:15.557Z,72.40
2017-08-18T10:41:44.070Z,70.90
2017-08-18T10:44:13.674Z,69.00
2017-08-18T10:46:41.700Z,68.70
2017-08-18T10:49:09.728Z,68.10
2017-08-18T10:51:37.719Z,66.00
2017-08-18T10:54:06.143Z,63.70
2017-08-18T10:56:35.841Z,63.10
2017-08-18T10:59:04.449Z,63.00
2017-08-18T11:01:33.755Z,59.90
2017-08-18T11:04:02.545Z,59.30
2017-08-18T11:06:31.433Z,58.20
2017-08-18T11:08:59.928Z,58.20
2017-08-18T11:11:28.728Z,57.60
2017-08-18T11:13:56.757Z,57.60
2017-08-18T11:16:24.981Z,57.90
2017-08-18T11:18:53.133Z,56.60
2017-08-18T11:21:24.858Z,56.40
2017-08-18T11:23:55.312Z,56.80
2017-08-18T11:26:24.227Z,56.80
2017-08-18T11:28:52.261Z,56.10
2017-08-18T11:31:20.752Z,56.20
2017-08-18T11:33:49.833Z,55.10
2017-08-18T11:36:18.612Z,53.80
2017-08-18T11:38:46.868Z,53.80
2017-08-18T11:41:16.868Z,53.40
2017-08-18T11:43:44.917Z,54.30
2017-08-18T11:46:13.062Z,53.50
2017-08-18T11:48:41.288Z,52.40
2017-08-18T11:51:09.309Z,51.30
2017-08-18T11:53:38.258Z,53.60
2017-08-18T11:56:08.087Z,53.50
2017-08-18T11:58:37.094Z,57.00
2017-08-18T12:01:07.749Z,57.70
2017-08-18T12:03:37.065Z,57.60
2017-08-18T12:06:05.741Z,58.40
2017-08-18T12:08:39.697Z,60.50
2017-08-18T12:11:08.917Z,60.30
2017-08-18T12:13:37.782Z,61.70
2017-08-18T12:16:08.070Z,62.00
2017-08-18T12:18:36.703Z,62.70
2017-08-18T12:21:05.475Z,63.50
2017-08-18T12:23:37.283Z,62.80
2017-08-18T12:26:07.329Z,63.00
2017-08-18T12:28:37.403Z,62.60
2017-08-18T12:31:06.039Z,63.00
2017-08-18T12:33:35.005Z,62.30
2017-08-18T12:36:04.714Z,62.90
2017-08-18T12:38:34.995Z,62.20
2017-08-18T12:41:03.467Z,62.50
2017-08-18T12:43:32.066Z,61.70
2017-08-18T12:46:03.817Z,61.50
2017-08-18T12:48:36.106Z,62.40
2017-08-18T12:51:04.814Z,61.30
2017-08-18T12:53:33.888Z,62.00
2017-08-18T12:56:02.987Z,61.70
2017-08-18T12:58:32.619Z,61.70
2017-08-18T13:01:01.687Z,61.90
2017-08-18T13:03:30.834Z,61.60
2017-08-18T13:06:01.501Z,61.20
2017-08-18T13:08:29.770Z,61.20
2017-08-18T13:10:58.736Z,60.20
2017-08-18T13:13:28.710Z,58.60
2017-08-18T13:15:57.824Z,57.90
2017-08-18T13:18:28.692Z,57.80
2017-08-18T13:20:59.908Z,57.70
2017-08-18T13:23:28.295Z,57.20
2017-08-18T13:25:58.345Z,58.00
2017-08-18T13:28:27.886Z,57.00
2017-08-18T13:30:56.250Z,57.30
2017-08-18T13:33:25.267Z,57.10
2017-08-18T13:35:53.565Z,57.00
2017-08-18T13:38:22.423Z,57.50
2017-08-18T13:40:51.208Z,57.20
2017-08-18T13:43:19.715Z,57.50
2017-08-18T13:45:48.797Z,58.00
2017-08-18T13:48:18.303Z,58.70
2017-08-18T13:50:48.719Z,57.50
2017-08-18T13:53:20.630Z,57.70
2017-08-18T13:55:50.322Z,57.70
2017-08-18T13:58:18.920Z,57.80
2017-08-18T14:00:49.649Z,58.00
2017-08-18T14:03:18.319Z,58.00
2017-08-18T14:05:47.271Z,57.20
2017-08-18T14:08:15.425Z,57.10
2017-08-18T14:10:43.723Z,57.20
2017-08-18T14:13:13.427Z,57.70
2017-08-18T14:15:41.634Z,58.30
2017-08-18T14:18:09.714Z,58.70
2017-08-18T14:20:37.945Z,58.90
2017-08-18T14:23:06.044Z,59.40
2017-08-18T14:25:40.704Z,62.70
2017-08-18T14:28:09.312Z,62.20
2017-08-18T14:30:37.739Z,63.50
2017-08-18T14:33:06.350Z,64.70
2017-08-18T14:35:35.392Z,65.40
2017-08-18T14:38:03.778Z,66.90
2017-08-18T14:40:32.393Z,67.20
2017-08-18T14:43:02.458Z,67.10
2017-08-18T14:45:31.245Z,68.30
2017-08-18T14:48:00.399Z,71.30
2017-08-18T14:50:28.762Z,71.30
2017-08-18T14:52:58.122Z,76.60
2017-08-18T14:55:30.474Z,76.40
2017-08-18T14:57:58.865Z,75.40
2017-08-18T15:00:27.359Z,76.20
2017-08-18T15:02:56.617Z,78.80
2017-08-18T15:05:25.383Z,78.80
2017-08-18T15:07:54.530Z,79.90
2017-08-18T15:10:23.174Z,79.60
2017-08-18T15:12:51.741Z,79.60
2017-08-18T15:15:20.754Z,79.20
2017-08-18T15:17:50.510Z,79.20
2017-08-18T15:20:18.911Z,80.30
2017-08-18T15:22:47.340Z,80.10
2017-08-18T15:25:15.734Z,79.50
2017-08-18T15:27:44.110Z,79.20
2017-08-18T15:30:12.776Z,78.40
2017-08-18T15:32:41.043Z,78.00
2017-08-18T15:35:09.304Z,75.40
2017-08-18T15:37:37.555Z,76.30
2017-08-18T15:40:06.840Z,73.70
2017-08-18T15:42:35.070Z,72.80
2017-08-18T15:45:03.517Z,72.90
2017-08-18T15:47:31.807Z,72.30
2017-08-18T15:50:00.227Z,72.70
2017-08-18T15:52:28.635Z,74.30
2017-08-18T15:54:56.878Z,73.80
2017-08-18T15:57:25.265Z,75.10
2017-08-18T15:59:53.568Z,76.60
2017-08-18T16:02:22.741Z,76.10
2017-08-18T16:04:50.966Z,76.40
2017-08-18T16:07:19.242Z,76.20
2017-08-18T16:09:47.517Z,77.60
2017-08-18T16:12:16.046Z,75.20
2017-08-18T16:14:44.334Z,74.70
2017-08-18T16:17:12.767Z,75.80
2017-08-18T16:19:41.098Z,75.40
2017-08-18T16:22:09.518Z,75.90
2017-08-18T16:24:38.263Z,75.70
2017-08-18T16:27:08.131Z,77.20
2017-08-18T16:29:36.701Z,77.10
2017-08-18T16:32:05.865Z,77.90
2017-08-18T16:34:34.266Z,77.70
2017-08-18T16:37:03.609Z,77.50
2017-08-18T16:39:32.009Z,78.60
2017-08-18T16:42:00.916Z,78.70
2017-08-18T16:44:29.409Z,79.70
2017-08-18T16:46:57.688Z,77.40
2017-08-18T16:49:26.182Z,78.60
2017-08-18T16:51:56.373Z,78.30
2017-08-18T16:54:24.623Z,77.00
2017-08-18T16:56:55.114Z,78.00
2017-08-18T16:59:23.853Z,78.00
2017-08-18T17:01:52.872Z,79.00
2017-08-18T17:04:21.326Z,79.00
2017-08-18T17:06:49.651Z,77.70
2017-08-18T17:09:17.907Z,77.70
2017-08-18T17:11:46.176Z,77.90
2017-08-18T17:14:14.569Z,78.10
2017-08-18T17:16:42.860Z,78.70
2017-08-18T17:19:11.254Z,79.30
2017-08-18T17:21:39.929Z,80.00
2017-08-18T17:24:08.313Z,79.70
2017-08-18T17:26:36.578Z,79.70
2017-08-18T17:29:04.815Z,79.70
2017-08-18T17:31:33.176Z,80.40
2017-08-18T17:34:01.474Z,78.50
2017-08-18T17:36:30.669Z,80.40
2017-08-18T17:38:59.684Z,81.40
2017-08-18T17:41:27.931Z,81.40
2017-08-18T17:43:56.325Z,82.40
2017-08-18T17:46:24.611Z,83.80
2017-08-18T17:48:53.068Z,83.90
2017-08-18T17:51:22.070Z,85.40
2017-08-18T17:53:50.433Z,85.40
2017-08-18T17:56:18.793Z,85.90
2017-08-18T17:58:47.825Z,86.30
2017-08-18T18:01:16.260Z,86.30
2017-08-18T18:03:44.590Z,86.90
2017-08-18T18:06:13.006Z,86.60
2017-08-18T18:08:41.317Z,86.70
2017-08-18T18:11:10.321Z,87.10
2017-08-18T18:13:39.742Z,88.50
2017-08-18T18:16:08.115Z,88.40
2017-08-18T18:18:36.362Z,88.60
2017-08-18T18:21:04.709Z,88.90
2017-08-18T18:23:33.074Z,89.30
2017-08-18T18:26:01.451Z,89.90
2017-08-18T18:28:30.790Z,90.20
2017-08-18T18:30:59.113Z,90.60
2017-08-18T18:33:27.585Z,90.60
2017-08-18T18:35:55.847Z,90.60
2017-08-18T18:38:24.409Z,90.70
2017-08-18T18:40:52.840Z,90.70
2017-08-18T18:43:21.506Z,90.90
2017-08-18T18:45:49.957Z,90.50
2017-08-18T18:48:20.976Z,89.90
2017-08-18T18:50:53.673Z,89.90
2017-08-18T18:53:23.104Z,90.00
2017-08-18T18:55:51.524Z,90.00
2017-08-18T18:58:19.795Z,89.60
2017-08-18T19:00:48.174Z,89.30
2017-08-18T19:03:16.418Z,89.50
2017-08-18T19:05:44.736Z,89.70
2017-08-18T19:08:13.310Z,90.00
2017-08-18T19:10:41.645Z,90.30
2017-08-18T19:13:09.872Z,90.00
2017-08-18T19:15:38.457Z,90.00
2017-08-18T19:18:06.684Z,89.50
2017-08-18T19:20:34.957Z,89.50
2017-08-18T19:23:03.219Z,89.30
2017-08-18T19:25:31.523Z,89.90
2017-08-18T19:27:59.934Z,89.50
2017-08-18T19:30:28.306Z,89.60
2017-08-18T19:32:56.557Z,89.90
2017-08-18T19:35:24.829Z,90.30
2017-08-18T19:37:53.088Z,90.30
2017-08-18T19:40:21.377Z,90.10
2017-08-18T19:42:49.606Z,90.30
2017-08-18T19:45:17.849Z,90.60
2017-08-18T19:47:46.894Z,90.50
2017-08-18T19:50:15.144Z,90.50
2017-08-18T19:52:44.184Z,90.50
2017-08-18T19:55:12.442Z,90.50
2017-08-18T19:57:40.765Z,90.20
2017-08-18T20:00:08.986Z,90.10
2017-08-18T20:02:37.505Z,90.10
2017-08-18T20:05:06.002Z,90.20
2017-08-18T20:07:34.259Z,90.10
2017-08-18T20:10:02.685Z,90.10
2017-08-18T20:12:30.927Z,90.10
2017-08-18T20:14:59.165Z,90.20
2017-08-18T20:17:27.438Z,90.40
2017-08-18T20:19:55.730Z,90.60
2017-08-18T20:22:24.034Z,90.60
2017-08-18T20:24:53.270Z,90.60
2017-08-18T20:27:23.041Z,90.60
2017-08-18T20:29:51.316Z,90.60
2017-08-18T20:32:19.938Z,90.40
2017-08-18T20:34:48.933Z,90.50
2017-08-18T20:37:17.248Z,90.40
2017-08-18T20:39:45.517Z,90.20
2017-08-18T20:42:13.926Z,90.00
2017-08-18T20:44:42.160Z,89.50
2017-08-18T20:47:10.405Z,89.30
2017-08-18T20:49:38.670Z,89.50
2017-08-18T20:52:08.711Z,90.10
2017-08-18T20:54:36.983Z,90.10
2017-08-18T20:57:05.318Z,90.10
2017-08-18T20:59:33.535Z,90.10
2017-08-18T21:02:01.861Z,90.10
2017-08-18T21:04:30.937Z,90.10
2017-08-18T21:06:59.613Z,90.10
2017-08-18T21:09:28.017Z,90.00
2017-08-18T21:11:56.541Z,90.10
2017-08-18T21:14:24.816Z,90.00
2017-08-18T21:16:53.087Z,90.00
2017-08-18T21:19:22.164Z,90.10
2017-08-18T21:21:51.193Z,90.10
2017-08-18T21:24:20.142Z,90.10
2017-08-18T21:26:48.518Z,90.20
2017-08-18T21:29:17.933Z,90.10
2017-08-18T21:31:46.950Z,90.00
2017-08-18T21:34:15.237Z,90.00
2017-08-18T21:36:43.533Z,90.10
2017-08-18T21:39:11.926Z,90.00
2017-08-18T21:41:40.233Z,90.10
2017-08-18T21:44:08.526Z,90.10
2017-08-18T21:46:36.773Z,90.00
2017-08-18T21:49:05.875Z,90.20
2017-08-18T21:51:34.094Z,90.20
2017-08-18T21:54:02.441Z,90.10
2017-08-18T21:56:30.692Z,90.00
2017-08-18T21:58:58.947Z,90.10
2017-08-18T22:01:27.697Z,90.00
2017-08-18T22:03:55.998Z,90.10
2017-08-18T22:06:24.303Z,90.00
2017-08-18T22:08:52.552Z,90.10
2017-08-18T22:11:20.946Z,90.20
2017-08-18T22:13:49.665Z,90.20
2017-08-18T22:16:18.690Z,90.40
2017-08-18T22:18:47.055Z,90.30
2017-08-18T22:21:16.055Z,90.50
2017-08-18T22:23:44.312Z,90.50
2017-08-18T22:26:13.995Z,90.70
2017-08-18T22:28:42.285Z,90.60
2017-08-18T22:31:10.601Z,90.70
2017-08-18T22:33:38.890Z,90.80
2017-08-18T22:36:07.356Z,90.90
2017-08-18T22:38:35.595Z,91.00
2017-08-18T22:41:03.907Z,91.00
2017-08-18T22:43:32.189Z,91.20
2017-08-18T22:46:00.425Z,91.30
2017-08-18T22:48:28.778Z,91.50
2017-08-18T22:50:57.435Z,91.70
2017-08-18T22:53:25.883Z,91.80
2017-08-18T22:55:54.186Z,91.80
2017-08-18T22:58:22.557Z,91.90
2017-08-18T23:00:50.814Z,91.90
2017-08-18T23:03:19.091Z,91.90
2017-08-18T23:05:47.466Z,91.90
2017-08-18T23:08:15.743Z,91.80
2017-08-18T23:10:44.991Z,92.00
2017-08-18T23:13:13.476Z,91.90
2017-08-18T23:15:43.716Z,91.90
2017-08-18T23:18:12.185Z,91.90
2017-08-18T23:20:40.614Z,92.10
2017-08-18T23:23:08.902Z,92.20
2017-08-18T23:25:37.271Z,92.30
2017-08-18T23:28:06.743Z,92.30
2017-08-18T23:30:34.995Z,92.30
2017-08-18T23:33:03.250Z,92.40
2017-08-18T23:35:31.521Z,92.40
2017-08-18T23:37:59.780Z,92.30
2017-08-18T23:40:28.091Z,92.40
2017-08-18T23:42:56.969Z,92.30
2017-08-18T23:45:25.459Z,92.50
2017-08-18T23:47:53.788Z,92.30
2017-08-18T23:50:22.787Z,92.30
2017-08-18T23:52:51.320Z,92.30
2017-08-18T23:55:20.348Z,92.00
2017-08-18T23:57:48.621Z,92.30
